sensor_id;sensor_type;location;lat;lon;timestamp;temperature;humidity
43520;DHT22;46848;51.980;5.918;2023-10-31T00:00:07;13.90;89.70
43520;DHT22;46848;51.980;5.918;2023-10-31T00:02:41;13.80;89.50
43520;DHT22;46848;51.980;5.918;2023-10-31T00:05:06;13.70;89.50
43520;DHT22;46848;51.980;5.918;2023-10-31T00:07:32;13.70;89.20
43520;DHT22;46848;51.980;5.918;2023-10-31T00:09:57;13.70;89.20
43520;DHT22;46848;51.980;5.918;2023-10-31T00:12:23;13.60;89.10
43520;DHT22;46848;51.980;5.918;2023-10-31T00:14:49;13.50;89.10
43520;DHT22;46848;51.980;5.918;2023-10-31T00:17:14;13.50;89.00
43520;DHT22;46848;51.980;5.918;2023-10-31T00:19:41;13.50;88.90
43520;DHT22;46848;51.980;5.918;2023-10-31T00:22:06;13.40;88.90
43520;DHT22;46848;51.980;5.918;2023-10-31T00:24:32;13.40;89.00
43520;DHT22;46848;51.980;5.918;2023-10-31T00:26:58;13.40;89.00
43520;DHT22;46848;51.980;5.918;2023-10-31T00:29:24;13.30;89.00
43520;DHT22;46848;51.980;5.918;2023-10-31T00:31:49;13.30;89.00
43520;DHT22;46848;51.980;5.918;2023-10-31T00:34:15;13.20;89.00
43520;DHT22;46848;51.980;5.918;2023-10-31T00:36:41;13.20;89.00
43520;DHT22;46848;51.980;5.918;2023-10-31T00:39:06;13.20;88.90
43520;DHT22;46848;51.980;5.918;2023-10-31T00:41:32;13.20;89.00
43520;DHT22;46848;51.980;5.918;2023-10-31T00:43:58;13.20;88.90
43520;DHT22;46848;51.980;5.918;2023-10-31T00:46:24;13.20;89.00
43520;DHT22;46848;51.980;5.918;2023-10-31T00:48:49;13.10;89.00
43520;DHT22;46848;51.980;5.918;2023-10-31T00:51:15;13.10;89.00
43520;DHT22;46848;51.980;5.918;2023-10-31T00:53:40;13.10;88.90
43520;DHT22;46848;51.980;5.918;2023-10-31T00:56:07;13.10;88.90
43520;DHT22;46848;51.980;5.918;2023-10-31T00:58:33;13.10;88.70
43520;DHT22;46848;51.980;5.918;2023-10-31T01:00:58;13.10;88.60
43520;DHT22;46848;51.980;5.918;2023-10-31T01:03:24;13.10;88.70
43520;DHT22;46848;51.980;5.918;2023-10-31T01:05:50;13.00;88.60
43520;DHT22;46848;51.980;5.918;2023-10-31T01:08:15;13.00;88.50
43520;DHT22;46848;51.980;5.918;2023-10-31T01:10:41;12.90;88.40
43520;DHT22;46848;51.980;5.918;2023-10-31T01:13:07;12.90;89.10
43520;DHT22;46848;51.980;5.918;2023-10-31T01:15:32;12.90;88.50
43520;DHT22;46848;51.980;5.918;2023-10-31T01:17:58;12.80;88.60
43520;DHT22;46848;51.980;5.918;2023-10-31T01:20:23;12.80;88.50
43520;DHT22;46848;51.980;5.918;2023-10-31T01:22:49;12.80;88.50
43520;DHT22;46848;51.980;5.918;2023-10-31T01:25:15;12.80;88.50
43520;DHT22;46848;51.980;5.918;2023-10-31T01:27:40;12.80;88.50
43520;DHT22;46848;51.980;5.918;2023-10-31T01:30:07;12.70;88.40
43520;DHT22;46848;51.980;5.918;2023-10-31T01:32:33;12.80;88.50
43520;DHT22;46848;51.980;5.918;2023-10-31T01:34:59;12.70;88.50
43520;DHT22;46848;51.980;5.918;2023-10-31T01:37:24;12.80;88.60
43520;DHT22;46848;51.980;5.918;2023-10-31T01:39:50;12.80;88.70
43520;DHT22;46848;51.980;5.918;2023-10-31T01:42:17;12.80;88.70
43520;DHT22;46848;51.980;5.918;2023-10-31T01:44:42;12.80;88.70
43520;DHT22;46848;51.980;5.918;2023-10-31T01:47:08;12.80;88.80
43520;DHT22;46848;51.980;5.918;2023-10-31T01:49:35;12.80;88.70
43520;DHT22;46848;51.980;5.918;2023-10-31T01:52:01;12.80;89.40
43520;DHT22;46848;51.980;5.918;2023-10-31T01:54:28;12.80;88.70
43520;DHT22;46848;51.980;5.918;2023-10-31T01:56:57;12.80;88.70
43520;DHT22;46848;51.980;5.918;2023-10-31T01:59:26;12.80;88.60
43520;DHT22;46848;51.980;5.918;2023-10-31T02:01:52;12.80;88.70
43520;DHT22;46848;51.980;5.918;2023-10-31T02:04:18;12.80;88.60
43520;DHT22;46848;51.980;5.918;2023-10-31T02:06:44;12.80;88.60
43520;DHT22;46848;51.980;5.918;2023-10-31T02:09:09;12.80;88.70
43520;DHT22;46848;51.980;5.918;2023-10-31T02:11:35;12.80;88.60
43520;DHT22;46848;51.980;5.918;2023-10-31T02:14:01;12.80;88.60
43520;DHT22;46848;51.980;5.918;2023-10-31T02:16:27;12.80;88.60
43520;DHT22;46848;51.980;5.918;2023-10-31T02:18:53;12.80;88.70
43520;DHT22;46848;51.980;5.918;2023-10-31T02:21:20;12.80;88.70
43520;DHT22;46848;51.980;5.918;2023-10-31T02:23:59;12.80;88.60
43520;DHT22;46848;51.980;5.918;2023-10-31T02:26:29;12.80;88.60
43520;DHT22;46848;51.980;5.918;2023-10-31T02:28:55;12.80;88.50
43520;DHT22;46848;51.980;5.918;2023-10-31T02:31:21;12.80;88.60
43520;DHT22;46848;51.980;5.918;2023-10-31T02:33:46;12.80;88.70
43520;DHT22;46848;51.980;5.918;2023-10-31T02:36:12;12.80;88.60
43520;DHT22;46848;51.980;5.918;2023-10-31T02:38:37;12.80;88.70
43520;DHT22;46848;51.980;5.918;2023-10-31T02:41:03;12.80;88.60
43520;DHT22;46848;51.980;5.918;2023-10-31T02:43:29;12.80;88.50
43520;DHT22;46848;51.980;5.918;2023-10-31T02:45:54;12.80;88.60
43520;DHT22;46848;51.980;5.918;2023-10-31T02:48:20;12.80;88.50
43520;DHT22;46848;51.980;5.918;2023-10-31T02:50:45;12.70;88.30
43520;DHT22;46848;51.980;5.918;2023-10-31T02:53:11;12.70;88.30
43520;DHT22;46848;51.980;5.918;2023-10-31T02:55:37;12.70;88.20
43520;DHT22;46848;51.980;5.918;2023-10-31T02:58:02;12.70;88.30
43520;DHT22;46848;51.980;5.918;2023-10-31T03:00:28;12.70;88.30
43520;DHT22;46848;51.980;5.918;2023-10-31T03:02:54;12.70;88.30
43520;DHT22;46848;51.980;5.918;2023-10-31T03:05:19;12.70;88.30
43520;DHT22;46848;51.980;5.918;2023-10-31T03:07:45;12.70;88.30
43520;DHT22;46848;51.980;5.918;2023-10-31T03:10:11;12.70;88.30
43520;DHT22;46848;51.980;5.918;2023-10-31T03:12:36;12.70;88.30
43520;DHT22;46848;51.980;5.918;2023-10-31T03:15:03;12.70;88.30
43520;DHT22;46848;51.980;5.918;2023-10-31T03:17:29;12.70;88.40
43520;DHT22;46848;51.980;5.918;2023-10-31T03:19:55;12.70;88.40
43520;DHT22;46848;51.980;5.918;2023-10-31T03:22:21;12.60;88.40
43520;DHT22;46848;51.980;5.918;2023-10-31T03:24:46;12.60;88.50
43520;DHT22;46848;51.980;5.918;2023-10-31T03:27:12;12.60;88.50
43520;DHT22;46848;51.980;5.918;2023-10-31T03:29:38;12.60;88.70
43520;DHT22;46848;51.980;5.918;2023-10-31T03:32:03;12.60;88.60
43520;DHT22;46848;51.980;5.918;2023-10-31T03:34:30;12.60;89.10
43520;DHT22;46848;51.980;5.918;2023-10-31T03:36:56;12.60;88.50
43520;DHT22;46848;51.980;5.918;2023-10-31T03:39:22;12.60;88.70
43520;DHT22;46848;51.980;5.918;2023-10-31T03:41:47;12.60;88.90
43520;DHT22;46848;51.980;5.918;2023-10-31T03:44:13;12.60;89.00
43520;DHT22;46848;51.980;5.918;2023-10-31T03:46:38;12.60;89.10
43520;DHT22;46848;51.980;5.918;2023-10-31T03:49:04;12.60;89.00
43520;DHT22;46848;51.980;5.918;2023-10-31T03:51:33;12.60;89.00
43520;DHT22;46848;51.980;5.918;2023-10-31T03:53:58;12.60;89.00
43520;DHT22;46848;51.980;5.918;2023-10-31T03:56:24;12.60;89.10
43520;DHT22;46848;51.980;5.918;2023-10-31T03:58:49;12.70;89.10
43520;DHT22;46848;51.980;5.918;2023-10-31T04:01:15;12.70;89.30
43520;DHT22;46848;51.980;5.918;2023-10-31T04:03:40;12.70;89.30
43520;DHT22;46848;51.980;5.918;2023-10-31T04:06:06;12.70;89.40
43520;DHT22;46848;51.980;5.918;2023-10-31T04:08:32;12.70;89.30
43520;DHT22;46848;51.980;5.918;2023-10-31T04:10:57;12.70;89.50
43520;DHT22;46848;51.980;5.918;2023-10-31T04:13:23;12.70;89.60
43520;DHT22;46848;51.980;5.918;2023-10-31T04:15:48;12.70;89.60
43520;DHT22;46848;51.980;5.918;2023-10-31T04:18:14;12.70;89.60
43520;DHT22;46848;51.980;5.918;2023-10-31T04:20:40;12.70;89.50
43520;DHT22;46848;51.980;5.918;2023-10-31T04:23:06;12.70;89.50
43520;DHT22;46848;51.980;5.918;2023-10-31T04:25:31;12.70;89.50
43520;DHT22;46848;51.980;5.918;2023-10-31T04:27:57;12.70;89.50
43520;DHT22;46848;51.980;5.918;2023-10-31T04:30:23;12.70;89.50
43520;DHT22;46848;51.980;5.918;2023-10-31T04:32:49;12.70;89.50
43520;DHT22;46848;51.980;5.918;2023-10-31T04:35:14;12.80;89.60
43520;DHT22;46848;51.980;5.918;2023-10-31T04:37:40;12.70;89.50
43520;DHT22;46848;51.980;5.918;2023-10-31T04:40:06;12.70;89.50
43520;DHT22;46848;51.980;5.918;2023-10-31T04:42:32;12.70;89.50
43520;DHT22;46848;51.980;5.918;2023-10-31T04:44:59;12.70;89.40
43520;DHT22;46848;51.980;5.918;2023-10-31T04:47:24;12.70;89.50
43520;DHT22;46848;51.980;5.918;2023-10-31T04:49:50;12.70;89.50
43520;DHT22;46848;51.980;5.918;2023-10-31T04:52:17;12.70;89.50
43520;DHT22;46848;51.980;5.918;2023-10-31T04:54:42;12.70;89.50
43520;DHT22;46848;51.980;5.918;2023-10-31T04:57:08;12.70;89.50
43520;DHT22;46848;51.980;5.918;2023-10-31T04:59:34;12.70;89.60
43520;DHT22;46848;51.980;5.918;2023-10-31T05:01:59;12.60;89.60
43520;DHT22;46848;51.980;5.918;2023-10-31T05:04:25;12.60;89.60
43520;DHT22;46848;51.980;5.918;2023-10-31T05:06:51;12.60;89.60
43520;DHT22;46848;51.980;5.918;2023-10-31T05:09:17;12.60;89.60
43520;DHT22;46848;51.980;5.918;2023-10-31T05:11:43;12.60;89.50
43520;DHT22;46848;51.980;5.918;2023-10-31T05:14:09;12.60;89.50
43520;DHT22;46848;51.980;5.918;2023-10-31T05:16:42;12.60;89.60
43520;DHT22;46848;51.980;5.918;2023-10-31T05:19:07;12.60;89.60
43520;DHT22;46848;51.980;5.918;2023-10-31T05:21:33;12.60;89.50
43520;DHT22;46848;51.980;5.918;2023-10-31T05:23:59;12.60;89.40
43520;DHT22;46848;51.980;5.918;2023-10-31T05:26:24;12.70;89.40
43520;DHT22;46848;51.980;5.918;2023-10-31T05:28:50;12.70;89.40
43520;DHT22;46848;51.980;5.918;2023-10-31T05:31:15;12.70;89.30
43520;DHT22;46848;51.980;5.918;2023-10-31T05:33:42;12.70;89.30
43520;DHT22;46848;51.980;5.918;2023-10-31T05:36:21;12.60;89.30
43520;DHT22;46848;51.980;5.918;2023-10-31T05:38:47;12.70;89.40
43520;DHT22;46848;51.980;5.918;2023-10-31T05:41:13;12.60;89.30
43520;DHT22;46848;51.980;5.918;2023-10-31T05:43:39;12.60;89.40
43520;DHT22;46848;51.980;5.918;2023-10-31T05:46:05;12.60;89.40
43520;DHT22;46848;51.980;5.918;2023-10-31T05:48:32;12.70;89.50
43520;DHT22;46848;51.980;5.918;2023-10-31T05:50:57;12.60;89.40
43520;DHT22;46848;51.980;5.918;2023-10-31T05:53:23;12.60;89.40
43520;DHT22;46848;51.980;5.918;2023-10-31T05:55:49;12.60;89.30
43520;DHT22;46848;51.980;5.918;2023-10-31T05:58:14;12.60;89.20
43520;DHT22;46848;51.980;5.918;2023-10-31T06:00:40;12.60;89.20
43520;DHT22;46848;51.980;5.918;2023-10-31T06:03:06;12.60;89.30
43520;DHT22;46848;51.980;5.918;2023-10-31T06:05:31;12.60;89.30
43520;DHT22;46848;51.980;5.918;2023-10-31T06:07:57;12.60;89.30
43520;DHT22;46848;51.980;5.918;2023-10-31T06:10:22;12.50;89.10
43520;DHT22;46848;51.980;5.918;2023-10-31T06:12:48;12.50;89.00
43520;DHT22;46848;51.980;5.918;2023-10-31T06:15:14;12.50;89.00
43520;DHT22;46848;51.980;5.918;2023-10-31T06:17:39;12.50;89.00
43520;DHT22;46848;51.980;5.918;2023-10-31T06:20:07;12.50;89.60
43520;DHT22;46848;51.980;5.918;2023-10-31T06:22:33;12.50;89.00
43520;DHT22;46848;51.980;5.918;2023-10-31T06:24:59;12.50;89.00
43520;DHT22;46848;51.980;5.918;2023-10-31T06:27:24;12.40;89.00
43520;DHT22;46848;51.980;5.918;2023-10-31T06:29:50;12.40;88.90
43520;DHT22;46848;51.980;5.918;2023-10-31T06:32:15;12.40;88.90
43520;DHT22;46848;51.980;5.918;2023-10-31T06:34:41;12.40;88.90
43520;DHT22;46848;51.980;5.918;2023-10-31T06:37:07;12.40;88.80
43520;DHT22;46848;51.980;5.918;2023-10-31T06:39:32;12.40;88.80
43520;DHT22;46848;51.980;5.918;2023-10-31T06:41:58;12.40;88.80
43520;DHT22;46848;51.980;5.918;2023-10-31T06:44:23;12.40;88.80
43520;DHT22;46848;51.980;5.918;2023-10-31T06:46:49;12.40;88.80
43520;DHT22;46848;51.980;5.918;2023-10-31T06:49:15;12.40;88.80
43520;DHT22;46848;51.980;5.918;2023-10-31T06:51:41;12.40;88.80
43520;DHT22;46848;51.980;5.918;2023-10-31T06:54:06;12.40;88.80
43520;DHT22;46848;51.980;5.918;2023-10-31T06:56:32;12.30;88.80
43520;DHT22;46848;51.980;5.918;2023-10-31T06:58:58;12.30;88.80
43520;DHT22;46848;51.980;5.918;2023-10-31T07:01:24;12.40;88.90
43520;DHT22;46848;51.980;5.918;2023-10-31T07:03:49;12.40;89.00
43520;DHT22;46848;51.980;5.918;2023-10-31T07:06:15;12.40;89.00
43520;DHT22;46848;51.980;5.918;2023-10-31T07:08:40;12.40;89.00
43520;DHT22;46848;51.980;5.918;2023-10-31T07:11:06;12.50;89.10
43520;DHT22;46848;51.980;5.918;2023-10-31T07:13:32;12.50;89.10
43520;DHT22;46848;51.980;5.918;2023-10-31T07:15:57;12.50;89.00
43520;DHT22;46848;51.980;5.918;2023-10-31T07:18:23;12.50;89.00
43520;DHT22;46848;51.980;5.918;2023-10-31T07:20:48;12.50;89.00
43520;DHT22;46848;51.980;5.918;2023-10-31T07:23:14;12.50;89.00
43520;DHT22;46848;51.980;5.918;2023-10-31T07:25:41;12.50;89.00
43520;DHT22;46848;51.980;5.918;2023-10-31T07:28:06;12.60;89.10
43520;DHT22;46848;51.980;5.918;2023-10-31T07:30:32;12.60;89.10
43520;DHT22;46848;51.980;5.918;2023-10-31T07:32:58;12.70;89.10
43520;DHT22;46848;51.980;5.918;2023-10-31T07:35:23;12.70;89.00
43520;DHT22;46848;51.980;5.918;2023-10-31T07:37:49;12.70;88.90
43520;DHT22;46848;51.980;5.918;2023-10-31T07:40:15;12.80;88.80
43520;DHT22;46848;51.980;5.918;2023-10-31T07:42:40;12.80;88.80
43520;DHT22;46848;51.980;5.918;2023-10-31T07:45:06;12.80;89.30
43520;DHT22;46848;51.980;5.918;2023-10-31T07:47:32;12.90;89.00
43520;DHT22;46848;51.980;5.918;2023-10-31T07:49:58;13.30;89.60
43520;DHT22;46848;51.980;5.918;2023-10-31T07:52:23;13.90;89.30
43520;DHT22;46848;51.980;5.918;2023-10-31T07:54:49;14.50;88.20
43520;DHT22;46848;51.980;5.918;2023-10-31T07:57:14;15.00;86.80
43520;DHT22;46848;51.980;5.918;2023-10-31T07:59:40;15.50;85.40
43520;DHT22;46848;51.980;5.918;2023-10-31T08:02:06;15.70;83.70
43520;DHT22;46848;51.980;5.918;2023-10-31T08:04:32;15.70;82.50
43520;DHT22;46848;51.980;5.918;2023-10-31T08:06:57;15.60;82.00
43520;DHT22;46848;51.980;5.918;2023-10-31T08:09:23;15.40;81.90
43520;DHT22;46848;51.980;5.918;2023-10-31T08:11:49;15.20;82.10
43520;DHT22;46848;51.980;5.918;2023-10-31T08:14:14;15.10;82.20
43520;DHT22;46848;51.980;5.918;2023-10-31T08:16:41;14.90;82.50
43520;DHT22;46848;51.980;5.918;2023-10-31T08:19:07;14.90;82.80
43520;DHT22;46848;51.980;5.918;2023-10-31T08:21:32;15.00;83.20
43520;DHT22;46848;51.980;5.918;2023-10-31T08:24:04;15.00;83.20
43520;DHT22;46848;51.980;5.918;2023-10-31T08:26:33;15.10;83.10
43520;DHT22;46848;51.980;5.918;2023-10-31T08:28:59;15.20;82.90
43520;DHT22;46848;51.980;5.918;2023-10-31T08:31:25;15.40;83.10
43520;DHT22;46848;51.980;5.918;2023-10-31T08:33:50;15.60;82.60
43520;DHT22;46848;51.980;5.918;2023-10-31T08:36:16;15.80;82.20
43520;DHT22;46848;51.980;5.918;2023-10-31T08:38:41;15.90;82.00
43520;DHT22;46848;51.980;5.918;2023-10-31T08:41:07;16.00;81.50
43520;DHT22;46848;51.980;5.918;2023-10-31T08:43:32;16.00;81.00
43520;DHT22;46848;51.980;5.918;2023-10-31T08:45:58;16.00;81.00
43520;DHT22;46848;51.980;5.918;2023-10-31T08:48:24;15.90;81.00
43520;DHT22;46848;51.980;5.918;2023-10-31T08:50:50;15.80;81.10
43520;DHT22;46848;51.980;5.918;2023-10-31T08:53:15;15.80;81.10
43520;DHT22;46848;51.980;5.918;2023-10-31T08:55:42;15.70;81.50
43520;DHT22;46848;51.980;5.918;2023-10-31T08:58:10;15.60;81.60
43520;DHT22;46848;51.980;5.918;2023-10-31T09:00:36;15.60;81.50
43520;DHT22;46848;51.980;5.918;2023-10-31T09:03:01;15.50;81.80
43520;DHT22;46848;51.980;5.918;2023-10-31T09:05:27;15.50;82.10
43520;DHT22;46848;51.980;5.918;2023-10-31T09:07:53;15.60;82.20
43520;DHT22;46848;51.980;5.918;2023-10-31T09:10:18;15.70;82.50
43520;DHT22;46848;51.980;5.918;2023-10-31T09:12:44;16.10;82.30
43520;DHT22;46848;51.980;5.918;2023-10-31T09:15:11;16.30;81.60
43520;DHT22;46848;51.980;5.918;2023-10-31T09:17:38;16.60;81.20
43520;DHT22;46848;51.980;5.918;2023-10-31T09:20:04;16.80;80.80
43520;DHT22;46848;51.980;5.918;2023-10-31T09:22:30;16.90;80.10
43520;DHT22;46848;51.980;5.918;2023-10-31T09:24:56;17.10;79.90
43520;DHT22;46848;51.980;5.918;2023-10-31T09:27:21;17.10;79.60
43520;DHT22;46848;51.980;5.918;2023-10-31T09:29:47;17.20;79.30
43520;DHT22;46848;51.980;5.918;2023-10-31T09:32:14;17.10;79.30
43520;DHT22;46848;51.980;5.918;2023-10-31T09:34:40;17.10;79.40
43520;DHT22;46848;51.980;5.918;2023-10-31T09:37:05;17.00;79.40
43520;DHT22;46848;51.980;5.918;2023-10-31T09:39:31;17.00;79.40
43520;DHT22;46848;51.980;5.918;2023-10-31T09:41:56;16.90;79.40
43520;DHT22;46848;51.980;5.918;2023-10-31T09:44:23;16.80;79.70
43520;DHT22;46848;51.980;5.918;2023-10-31T09:46:51;16.80;79.80
43520;DHT22;46848;51.980;5.918;2023-10-31T09:49:17;16.70;79.70
43520;DHT22;46848;51.980;5.918;2023-10-31T09:51:43;16.70;79.80
43520;DHT22;46848;51.980;5.918;2023-10-31T09:54:09;16.80;80.00
43520;DHT22;46848;51.980;5.918;2023-10-31T09:56:35;17.00;79.50
43520;DHT22;46848;51.980;5.918;2023-10-31T09:59:01;17.10;79.40
43520;DHT22;46848;51.980;5.918;2023-10-31T10:01:28;17.20;79.30
43520;DHT22;46848;51.980;5.918;2023-10-31T10:03:54;17.40;79.20
43520;DHT22;46848;51.980;5.918;2023-10-31T10:06:21;17.60;78.70
43520;DHT22;46848;51.980;5.918;2023-10-31T10:08:46;17.80;78.50
43520;DHT22;46848;51.980;5.918;2023-10-31T10:11:12;18.00;78.30
43520;DHT22;46848;51.980;5.918;2023-10-31T10:13:38;18.10;77.60
43520;DHT22;46848;51.980;5.918;2023-10-31T10:16:04;18.20;77.40
43520;DHT22;46848;51.980;5.918;2023-10-31T10:18:32;18.30;77.30
43520;DHT22;46848;51.980;5.918;2023-10-31T10:21:01;18.30;76.90
43520;DHT22;46848;51.980;5.918;2023-10-31T10:23:28;18.30;76.70
43520;DHT22;46848;51.980;5.918;2023-10-31T10:25:57;18.30;76.80
43520;DHT22;46848;51.980;5.918;2023-10-31T10:28:23;18.30;76.90
43520;DHT22;46848;51.980;5.918;2023-10-31T10:30:50;18.40;77.00
43520;DHT22;46848;51.980;5.918;2023-10-31T10:33:17;18.40;76.80
43520;DHT22;46848;51.980;5.918;2023-10-31T10:35:43;18.50;76.70
43520;DHT22;46848;51.980;5.918;2023-10-31T10:38:17;18.50;76.30
43520;DHT22;46848;51.980;5.918;2023-10-31T10:40:45;18.40;76.20
43520;DHT22;46848;51.980;5.918;2023-10-31T10:43:24;18.40;76.20
43520;DHT22;46848;51.980;5.918;2023-10-31T10:45:55;18.30;76.30
43520;DHT22;46848;51.980;5.918;2023-10-31T10:48:22;18.30;76.30
43520;DHT22;46848;51.980;5.918;2023-10-31T10:50:57;18.30;76.40
43520;DHT22;46848;51.980;5.918;2023-10-31T10:53:24;18.30;75.50
43520;DHT22;46848;51.980;5.918;2023-10-31T10:55:57;18.30;76.10
43520;DHT22;46848;51.980;5.918;2023-10-31T10:59:38;18.20;75.70
43520;DHT22;46848;51.980;5.918;2023-10-31T11:01:34;18.00;75.90
43520;DHT22;46848;51.980;5.918;2023-10-31T11:04:05;17.90;76.20
43520;DHT22;46848;51.980;5.918;2023-10-31T11:06:31;17.80;76.40
43520;DHT22;46848;51.980;5.918;2023-10-31T11:08:58;17.80;76.60
43520;DHT22;46848;51.980;5.918;2023-10-31T11:11:25;17.70;76.60
43520;DHT22;46848;51.980;5.918;2023-10-31T11:13:51;17.70;76.80
43520;DHT22;46848;51.980;5.918;2023-10-31T11:16:26;17.60;76.80
43520;DHT22;46848;51.980;5.918;2023-10-31T11:18:54;17.60;76.90
43520;DHT22;46848;51.980;5.918;2023-10-31T11:21:22;17.50;77.00
43520;DHT22;46848;51.980;5.918;2023-10-31T11:23:57;17.40;77.20
43520;DHT22;46848;51.980;5.918;2023-10-31T11:26:34;17.40;77.30
43520;DHT22;46848;51.980;5.918;2023-10-31T11:29:06;17.30;77.60
43520;DHT22;46848;51.980;5.918;2023-10-31T11:31:32;17.20;77.70
43520;DHT22;46848;51.980;5.918;2023-10-31T11:34:01;17.10;77.90
43520;DHT22;46848;51.980;5.918;2023-10-31T11:36:26;17.00;78.10
43520;DHT22;46848;51.980;5.918;2023-10-31T11:39:10;17.00;78.20
43520;DHT22;46848;51.980;5.918;2023-10-31T11:41:38;16.90;78.30
43520;DHT22;46848;51.980;5.918;2023-10-31T11:44:04;16.80;78.60
43520;DHT22;46848;51.980;5.918;2023-10-31T11:46:30;16.80;78.60
43520;DHT22;46848;51.980;5.918;2023-10-31T11:48:56;16.80;78.40
43520;DHT22;46848;51.980;5.918;2023-10-31T11:51:22;16.80;78.30
43520;DHT22;46848;51.980;5.918;2023-10-31T11:53:48;16.90;78.30
43520;DHT22;46848;51.980;5.918;2023-10-31T11:56:15;17.10;78.10
43520;DHT22;46848;51.980;5.918;2023-10-31T11:58:41;17.10;77.30
43520;DHT22;46848;51.980;5.918;2023-10-31T12:01:08;17.10;77.30
43520;DHT22;46848;51.980;5.918;2023-10-31T12:03:43;17.20;77.30
43520;DHT22;46848;51.980;5.918;2023-10-31T12:06:15;17.30;77.20
43520;DHT22;46848;51.980;5.918;2023-10-31T12:08:43;17.30;76.90
43520;DHT22;46848;51.980;5.918;2023-10-31T12:11:11;17.30;76.80
43520;DHT22;46848;51.980;5.918;2023-10-31T12:13:38;17.40;76.50
43520;DHT22;46848;51.980;5.918;2023-10-31T12:16:09;17.30;76.20
43520;DHT22;46848;51.980;5.918;2023-10-31T12:18:35;17.30;76.40
43520;DHT22;46848;51.980;5.918;2023-10-31T12:21:02;17.30;76.00
43520;DHT22;46848;51.980;5.918;2023-10-31T12:23:28;17.40;76.20
43520;DHT22;46848;51.980;5.918;2023-10-31T12:25:54;17.40;76.20
43520;DHT22;46848;51.980;5.918;2023-10-31T12:28:21;17.50;76.40
43520;DHT22;46848;51.980;5.918;2023-10-31T12:30:53;17.60;75.40
43520;DHT22;46848;51.980;5.918;2023-10-31T12:33:20;17.60;75.40
43520;DHT22;46848;51.980;5.918;2023-10-31T12:35:48;17.40;75.10
43520;DHT22;46848;51.980;5.918;2023-10-31T12:38:14;17.30;75.40
43520;DHT22;46848;51.980;5.918;2023-10-31T12:40:43;17.20;75.50
43520;DHT22;46848;51.980;5.918;2023-10-31T12:43:09;17.10;75.60
43520;DHT22;46848;51.980;5.918;2023-10-31T12:45:35;17.00;75.50
43520;DHT22;46848;51.980;5.918;2023-10-31T12:48:10;16.90;75.60
43520;DHT22;46848;51.980;5.918;2023-10-31T12:50:38;16.70;75.90
43520;DHT22;46848;51.980;5.918;2023-10-31T12:53:06;16.60;76.30
43520;DHT22;46848;51.980;5.918;2023-10-31T12:55:38;16.50;76.80
43520;DHT22;46848;51.980;5.918;2023-10-31T12:58:05;16.50;77.00
43520;DHT22;46848;51.980;5.918;2023-10-31T13:00:32;16.50;77.10
43520;DHT22;46848;51.980;5.918;2023-10-31T13:03:03;16.40;77.10
43520;DHT22;46848;51.980;5.918;2023-10-31T13:05:29;16.40;77.30
43520;DHT22;46848;51.980;5.918;2023-10-31T13:07:56;16.40;77.50
43520;DHT22;46848;51.980;5.918;2023-10-31T13:10:24;16.30;77.50
43520;DHT22;46848;51.980;5.918;2023-10-31T13:12:50;16.30;77.80
43520;DHT22;46848;51.980;5.918;2023-10-31T13:15:17;16.30;77.90
43520;DHT22;46848;51.980;5.918;2023-10-31T13:17:46;16.30;78.00
43520;DHT22;46848;51.980;5.918;2023-10-31T13:20:13;16.30;78.00
43520;DHT22;46848;51.980;5.918;2023-10-31T13:22:40;16.40;78.10
43520;DHT22;46848;51.980;5.918;2023-10-31T13:25:07;16.40;77.80
43520;DHT22;46848;51.980;5.918;2023-10-31T13:27:35;16.30;77.90
43520;DHT22;46848;51.980;5.918;2023-10-31T13:30:04;16.20;77.70
43520;DHT22;46848;51.980;5.918;2023-10-31T13:32:30;16.20;78.00
43520;DHT22;46848;51.980;5.918;2023-10-31T13:34:56;16.20;77.90
43520;DHT22;46848;51.980;5.918;2023-10-31T13:37:22;16.30;78.00
43520;DHT22;46848;51.980;5.918;2023-10-31T13:39:47;16.30;77.60
43520;DHT22;46848;51.980;5.918;2023-10-31T13:42:13;16.20;77.40
43520;DHT22;46848;51.980;5.918;2023-10-31T13:44:42;16.20;77.30
43520;DHT22;46848;51.980;5.918;2023-10-31T13:47:08;16.10;77.30
43520;DHT22;46848;51.980;5.918;2023-10-31T13:49:35;16.00;77.40
43520;DHT22;46848;51.980;5.918;2023-10-31T13:52:00;16.00;77.50
43520;DHT22;46848;51.980;5.918;2023-10-31T13:54:26;16.00;77.70
43520;DHT22;46848;51.980;5.918;2023-10-31T13:56:53;15.90;77.80
43520;DHT22;46848;51.980;5.918;2023-10-31T13:59:19;15.80;77.90
43520;DHT22;46848;51.980;5.918;2023-10-31T14:01:45;15.70;78.00
43520;DHT22;46848;51.980;5.918;2023-10-31T14:04:11;15.60;78.20
43520;DHT22;46848;51.980;5.918;2023-10-31T14:06:40;15.50;78.40
43520;DHT22;46848;51.980;5.918;2023-10-31T14:09:07;15.40;78.40
43520;DHT22;46848;51.980;5.918;2023-10-31T14:11:35;15.30;78.20
43520;DHT22;46848;51.980;5.918;2023-10-31T14:14:01;15.20;78.40
43520;DHT22;46848;51.980;5.918;2023-10-31T14:16:39;15.20;78.40
43520;DHT22;46848;51.980;5.918;2023-10-31T14:19:05;15.10;78.50
43520;DHT22;46848;51.980;5.918;2023-10-31T14:21:35;15.10;78.60
43520;DHT22;46848;51.980;5.918;2023-10-31T14:24:01;15.10;78.60
43520;DHT22;46848;51.980;5.918;2023-10-31T14:26:28;15.10;78.60
43520;DHT22;46848;51.980;5.918;2023-10-31T14:28:55;15.10;78.50
43520;DHT22;46848;51.980;5.918;2023-10-31T14:31:21;15.10;78.50
43520;DHT22;46848;51.980;5.918;2023-10-31T14:33:47;15.10;78.50
43520;DHT22;46848;51.980;5.918;2023-10-31T14:36:12;15.20;78.70
43520;DHT22;46848;51.980;5.918;2023-10-31T14:38:39;15.10;78.60
43520;DHT22;46848;51.980;5.918;2023-10-31T14:41:06;15.20;78.70
43520;DHT22;46848;51.980;5.918;2023-10-31T14:43:33;15.20;78.70
43520;DHT22;46848;51.980;5.918;2023-10-31T14:45:59;15.20;78.80
43520;DHT22;46848;51.980;5.918;2023-10-31T14:48:24;15.10;78.80
43520;DHT22;46848;51.980;5.918;2023-10-31T14:50:50;15.10;78.80
43520;DHT22;46848;51.980;5.918;2023-10-31T14:53:16;15.20;78.90
43520;DHT22;46848;51.980;5.918;2023-10-31T14:55:42;15.10;78.90
43520;DHT22;46848;51.980;5.918;2023-10-31T14:58:07;15.10;79.00
43520;DHT22;46848;51.980;5.918;2023-10-31T15:00:34;15.00;79.10
43520;DHT22;46848;51.980;5.918;2023-10-31T15:03:00;15.00;79.10
43520;DHT22;46848;51.980;5.918;2023-10-31T15:05:25;15.00;79.10
43520;DHT22;46848;51.980;5.918;2023-10-31T15:07:51;15.00;79.10
43520;DHT22;46848;51.980;5.918;2023-10-31T15:10:18;15.00;79.10
43520;DHT22;46848;51.980;5.918;2023-10-31T15:12:45;15.00;79.10
43520;DHT22;46848;51.980;5.918;2023-10-31T15:15:11;14.90;79.00
43520;DHT22;46848;51.980;5.918;2023-10-31T15:17:38;15.00;78.90
43520;DHT22;46848;51.980;5.918;2023-10-31T15:20:04;15.00;78.90
43520;DHT22;46848;51.980;5.918;2023-10-31T15:22:31;15.00;78.90
43520;DHT22;46848;51.980;5.918;2023-10-31T15:24:57;14.90;78.80